createdAt,value
2018-08-24T00:01:11.546Z,2.00
2018-08-24T00:03:16.126Z,1.90
2018-08-24T00:05:20.594Z,1.80
2018-08-24T00:07:25.187Z,2.20
2018-08-24T00:09:30.638Z,2.12
2018-08-24T00:11:35.303Z,2.10
2018-08-24T00:13:39.746Z,2.27
2018-08-24T00:15:44.207Z,2.10
2018-08-24T00:17:49.042Z,2.03
2018-08-24T00:19:53.475Z,1.97
2018-08-24T00:21:57.935Z,1.90
2018-08-24T00:24:02.364Z,1.95
2018-08-24T00:26:06.839Z,2.15
2018-08-24T00:28:11.303Z,1.73
2018-08-24T00:30:15.777Z,2.00
2018-08-24T00:32:20.243Z,1.87
2018-08-24T00:34:24.692Z,1.67
2018-08-24T00:36:30.329Z,2.17
2018-08-24T00:38:35.074Z,2.10
2018-08-24T00:40:39.515Z,2.12
2018-08-24T00:42:44.059Z,1.75
2018-08-24T00:44:48.435Z,1.77
2018-08-24T00:46:52.858Z,2.30
2018-08-24T00:48:57.318Z,1.87
2018-08-24T00:51:01.769Z,1.90
2018-08-24T00:53:06.227Z,1.67
2018-08-24T00:55:10.698Z,1.90
2018-08-24T00:57:15.142Z,1.97
2018-08-24T00:59:19.578Z,2.25
2018-08-24T01:01:28.878Z,1.80
2018-08-24T01:03:34.342Z,1.73
2018-08-24T01:05:41.038Z,2.12
2018-08-24T01:07:51.790Z,1.83
2018-08-24T01:10:01.331Z,2.40
2018-08-24T01:12:15.329Z,1.87
2018-08-24T01:14:21.470Z,1.80
2018-08-24T01:16:32.991Z,1.72
2018-08-24T01:18:44.785Z,1.77
2018-08-24T01:20:52.960Z,1.17
2018-08-24T01:23:00.807Z,1.22
2018-08-24T01:25:07.412Z,0.93
2018-08-24T01:27:13.062Z,0.60
2018-08-24T01:29:18.385Z,0.50
2018-08-24T01:31:26.015Z,0.30
2018-08-24T01:33:34.465Z,0.60
2018-08-24T01:35:42.414Z,0.60
2018-08-24T01:37:49.925Z,0.50
2018-08-24T01:39:58.232Z,0.30
2018-08-24T01:42:06.924Z,0.40
2018-08-24T01:44:15.422Z,0.40
2018-08-24T01:46:24.861Z,0.40
2018-08-24T01:48:34.025Z,0.50
2018-08-24T01:50:41.871Z,0.40
2018-08-24T01:52:47.326Z,0.50
2018-08-24T01:54:52.951Z,0.60
2018-08-24T01:57:01.634Z,0.60
2018-08-24T01:59:09.291Z,0.47
2018-08-24T02:01:14.006Z,0.60
2018-08-24T02:03:21.436Z,0.60
2018-08-24T02:05:27.869Z,0.50
2018-08-24T02:07:34.642Z,0.43
2018-08-24T02:09:42.466Z,0.45
2018-08-24T02:11:49.195Z,0.45
2018-08-24T02:13:59.058Z,0.60
2018-08-24T02:16:04.910Z,0.85
2018-08-24T02:18:17.624Z,0.60
2018-08-24T02:20:27.363Z,1.20
2018-08-24T02:22:32.111Z,1.30
2018-08-24T02:24:36.550Z,0.93
2018-08-24T02:26:41.642Z,1.27
2018-08-24T02:28:46.118Z,1.60
2018-08-24T02:30:50.625Z,1.40
2018-08-24T02:32:55.147Z,1.70
2018-08-24T02:35:00.067Z,1.60
2018-08-24T02:37:04.576Z,1.65
2018-08-24T02:39:14.211Z,1.85
2018-08-24T02:41:18.747Z,1.80
2018-08-24T02:43:23.934Z,1.85
2018-08-24T02:45:28.430Z,1.73
2018-08-24T02:47:32.918Z,1.70
2018-08-24T02:49:37.378Z,1.80
2018-08-24T02:51:41.834Z,1.60
2018-08-24T02:53:46.350Z,1.80
2018-08-24T02:55:50.849Z,2.27
2018-08-24T02:57:55.330Z,1.80
2018-08-24T02:59:59.891Z,1.90
2018-08-24T03:02:04.378Z,1.80
2018-08-24T03:04:08.887Z,1.55
2018-08-24T03:06:13.446Z,2.17
2018-08-24T03:08:17.919Z,2.10
2018-08-24T03:10:22.438Z,1.92
2018-08-24T03:12:26.938Z,1.80
2018-08-24T03:14:31.399Z,1.83
2018-08-24T03:16:35.845Z,2.37
2018-08-24T03:18:40.310Z,1.90
2018-08-24T03:20:44.866Z,1.80
2018-08-24T03:22:49.383Z,2.60
2018-08-24T03:24:53.862Z,2.50
2018-08-24T03:26:58.328Z,2.40
2018-08-24T03:29:02.823Z,2.60
2018-08-24T03:31:07.355Z,2.30
2018-08-24T03:33:13.507Z,2.77
2018-08-24T03:35:18.067Z,2.55
2018-08-24T03:37:22.599Z,2.20
2018-08-24T03:39:27.681Z,2.00
2018-08-24T03:41:33.297Z,2.23
2018-08-24T03:43:37.731Z,2.23
2018-08-24T03:45:42.250Z,1.83
2018-08-24T03:47:46.685Z,2.03
2018-08-24T03:49:51.217Z,1.97
2018-08-24T03:51:55.725Z,2.40
2018-08-24T03:54:00.336Z,2.20
2018-08-24T03:56:05.463Z,2.10
2018-08-24T03:58:09.939Z,2.37
2018-08-24T04:00:17.982Z,2.20
2018-08-24T04:02:24.121Z,2.40
2018-08-24T04:04:30.541Z,2.43
2018-08-24T04:06:36.341Z,2.50
2018-08-24T04:08:41.937Z,2.50
2018-08-24T04:10:48.323Z,2.22
2018-08-24T04:12:56.861Z,2.52
2018-08-24T04:15:04.648Z,2.80
2018-08-24T04:17:14.396Z,2.37
2018-08-24T04:19:27.464Z,2.67
2018-08-24T04:21:31.892Z,2.57
2018-08-24T04:23:36.438Z,2.90
2018-08-24T04:25:41.018Z,2.53
2018-08-24T04:27:45.446Z,2.37
2018-08-24T04:29:50.202Z,2.50
2018-08-24T04:31:54.714Z,2.40
2018-08-24T04:33:59.179Z,2.53
2018-08-24T04:36:03.834Z,2.40
2018-08-24T04:38:08.470Z,3.00
2018-08-24T04:40:13.035Z,2.80
2018-08-24T04:42:17.548Z,3.23
2018-08-24T04:44:22.032Z,3.07
2018-08-24T04:46:26.545Z,3.10
2018-08-24T04:48:31.026Z,3.20
2018-08-24T04:50:35.522Z,6.37
2018-08-24T04:52:40.034Z,4.70
2018-08-24T04:54:44.542Z,4.58
2018-08-24T04:56:49.020Z,4.80
2018-08-24T04:58:53.778Z,5.63
2018-08-24T05:00:58.353Z,6.40
2018-08-24T05:03:02.829Z,5.97
2018-08-24T05:05:09.298Z,6.83
2018-08-24T05:07:14.942Z,6.57
2018-08-24T05:09:19.377Z,6.77
2018-08-24T05:11:23.851Z,6.80
2018-08-24T05:13:28.547Z,6.78
2018-08-24T05:15:33.531Z,6.72
2018-08-24T05:17:38.122Z,6.60
2018-08-24T05:19:42.599Z,5.28
2018-08-24T05:21:47.110Z,5.85
2018-08-24T05:23:52.541Z,6.47
2018-08-24T05:25:58.726Z,6.93
2018-08-24T05:28:04.336Z,6.83
2018-08-24T05:30:10.302Z,6.85
2018-08-24T05:32:15.426Z,7.47
2018-08-24T05:34:19.902Z,7.27
2018-08-24T05:36:24.890Z,7.10
2018-08-24T05:38:29.754Z,7.47
2018-08-24T05:40:34.231Z,8.25
2018-08-24T05:42:38.682Z,8.20
2018-08-24T05:44:43.208Z,7.77
2018-08-24T05:46:47.730Z,8.28
2018-08-24T05:48:52.334Z,7.80
2018-08-24T05:50:56.698Z,8.47
2018-08-24T05:53:01.224Z,8.50
2018-08-24T05:55:06.334Z,8.45
2018-08-24T05:57:10.814Z,8.00
2018-08-24T05:59:15.278Z,8.17
2018-08-24T06:01:19.802Z,8.60
2018-08-24T06:03:24.318Z,8.37
2018-08-24T06:05:29.269Z,8.47
2018-08-24T06:07:33.705Z,8.15
2018-08-24T06:09:38.450Z,8.40
2018-08-24T06:11:43.495Z,8.45
2018-08-24T06:13:47.958Z,8.48
2018-08-24T06:15:52.499Z,8.28
2018-08-24T06:17:58.506Z,7.83
2018-08-24T06:20:03.161Z,7.70
2018-08-24T06:22:07.726Z,7.62
2018-08-24T06:24:12.773Z,7.30
2018-08-24T06:26:18.446Z,8.10
2018-08-24T06:28:22.893Z,7.55
2018-08-24T06:30:28.136Z,7.30
2018-08-24T06:32:32.775Z,7.13
2018-08-24T06:34:38.358Z,8.00
2018-08-24T06:36:42.815Z,7.93
2018-08-24T06:38:47.262Z,7.90
2018-08-24T06:40:51.883Z,8.23
2018-08-24T06:42:57.316Z,9.20
2018-08-24T06:45:01.974Z,7.90
2018-08-24T06:47:07.612Z,9.05
2018-08-24T06:49:13.445Z,9.17
2018-08-24T06:51:20.508Z,9.70
2018-08-24T06:53:26.189Z,9.63
2018-08-24T06:55:32.622Z,10.57
2018-08-24T06:57:37.146Z,9.63
2018-08-24T06:59:42.561Z,10.83
2018-08-24T07:01:47.690Z,10.03
2018-08-24T07:03:52.168Z,9.88
2018-08-24T07:05:56.706Z,10.25
2018-08-24T07:08:01.177Z,10.90
2018-08-24T07:10:05.994Z,10.82
2018-08-24T07:12:13.662Z,10.03
2018-08-24T07:14:18.717Z,10.78
2018-08-24T07:16:23.270Z,10.00
2018-08-24T07:18:27.818Z,11.80
2018-08-24T07:20:32.747Z,10.98
2018-08-24T07:22:37.326Z,9.87
2018-08-24T07:24:41.920Z,11.03
2018-08-24T07:26:46.474Z,11.18
2018-08-24T07:28:50.938Z,10.63
2018-08-24T07:30:55.492Z,10.50
2018-08-24T07:32:59.934Z,10.83
2018-08-24T07:35:04.498Z,10.17
2018-08-24T07:37:09.223Z,10.03
2018-08-24T07:39:14.826Z,11.88
2018-08-24T07:41:19.382Z,10.83
2018-08-24T07:43:24.536Z,10.55
2018-08-24T07:45:30.041Z,9.78
2018-08-24T07:47:34.741Z,10.53
2018-08-24T07:49:39.269Z,10.77
2018-08-24T07:51:43.824Z,9.98
2018-08-24T07:53:48.308Z,9.45
2018-08-24T07:55:52.899Z,9.83
2018-08-24T07:57:57.486Z,10.03
2018-08-24T08:00:01.966Z,9.87
2018-08-24T08:02:06.578Z,9.63
2018-08-24T08:04:11.092Z,10.05
2018-08-24T08:06:15.622Z,9.73
2018-08-24T08:08:20.107Z,9.27
2018-08-24T08:10:24.646Z,8.83
2018-08-24T08:12:29.195Z,9.03
2018-08-24T08:14:33.713Z,8.37
2018-08-24T08:16:39.069Z,8.43
2018-08-24T08:18:43.581Z,8.80
2018-08-24T08:20:48.027Z,8.77
2018-08-24T08:22:52.527Z,9.00
2018-08-24T08:24:57.003Z,8.97
2018-08-24T08:27:01.714Z,8.10
2018-08-24T08:29:06.253Z,8.55
2018-08-24T08:31:10.811Z,8.05
2018-08-24T08:33:15.279Z,7.90
2018-08-24T08:35:19.734Z,7.93
2018-08-24T08:37:24.722Z,8.00
2018-08-24T08:39:29.204Z,8.23
2018-08-24T08:41:33.688Z,7.83
2018-08-24T08:43:39.387Z,7.57
2018-08-24T08:45:43.882Z,7.83
2018-08-24T08:47:48.422Z,7.90
2018-08-24T08:49:52.906Z,7.33
2018-08-24T08:51:57.428Z,6.72
2018-08-24T08:54:01.909Z,6.93
2018-08-24T08:56:06.990Z,7.03
2018-08-24T08:58:11.494Z,6.63
2018-08-24T09:00:15.943Z,6.37
2018-08-24T09:02:20.607Z,6.30
2018-08-24T09:04:25.210Z,6.25
2018-08-24T09:06:29.779Z,6.33
2018-08-24T09:08:34.219Z,6.77
2018-08-24T09:10:39.561Z,6.55
2018-08-24T09:12:44.040Z,5.73
2018-08-24T09:14:48.546Z,4.28
2018-08-24T09:16:53.040Z,3.90
2018-08-24T09:19:02.830Z,3.10
2018-08-24T09:21:12.666Z,3.17
2018-08-24T09:23:22.356Z,3.00
2018-08-24T09:25:32.165Z,3.37
2018-08-24T09:28:41.974Z,2.97
2018-08-24T09:30:53.830Z,2.73
2018-08-24T09:32:58.354Z,3.03
2018-08-24T09:35:03.343Z,2.60
2018-08-24T09:37:13.191Z,3.03
2018-08-24T09:39:28.223Z,2.20
2018-08-24T09:41:35.308Z,2.30
2018-08-24T09:43:46.482Z,2.33
2018-08-24T09:45:51.050Z,2.17
2018-08-24T09:48:35.134Z,2.03
2018-08-24T09:50:47.091Z,2.40
2018-08-24T09:52:56.773Z,1.87
2018-08-24T09:55:01.254Z,2.17
2018-08-24T09:57:06.016Z,2.10
2018-08-24T09:59:10.492Z,2.05
2018-08-24T10:01:20.182Z,2.73
2018-08-24T10:03:29.763Z,2.42
2018-08-24T10:05:39.408Z,2.80
2018-08-24T10:07:45.379Z,2.50
2018-08-24T10:09:49.885Z,2.50
2018-08-24T10:11:54.462Z,2.62
2018-08-24T10:14:00.154Z,3.20
2018-08-24T10:16:04.590Z,2.98
2018-08-24T10:18:09.159Z,3.53
2018-08-24T10:20:13.726Z,3.47
2018-08-24T10:22:18.209Z,3.47
2018-08-24T10:24:22.696Z,3.93
2018-08-24T10:26:27.215Z,4.12
2018-08-24T10:28:32.007Z,5.70
2018-08-24T10:30:36.592Z,6.20
2018-08-24T10:32:41.023Z,5.80
2018-08-24T10:34:45.495Z,5.33
2018-08-24T10:36:49.989Z,5.87
2018-08-24T10:38:54.531Z,6.27
2018-08-24T10:41:00.195Z,6.43
2018-08-24T10:43:05.036Z,5.07
2018-08-24T10:45:09.551Z,5.17
2018-08-24T10:47:14.033Z,4.35
2018-08-24T10:49:18.545Z,4.00
2018-08-24T10:51:22.983Z,4.40
2018-08-24T10:53:27.521Z,3.37
2018-08-24T10:55:32.027Z,3.40
2018-08-24T10:57:36.574Z,3.17
2018-08-24T10:59:41.329Z,2.80
2018-08-24T11:01:45.775Z,2.77
2018-08-24T11:03:50.304Z,2.30
2018-08-24T11:05:54.823Z,2.58
2018-08-24T11:07:59.391Z,2.07
2018-08-24T11:10:04.010Z,2.00
2018-08-24T11:12:08.564Z,2.02
2018-08-24T11:14:13.064Z,2.40
2018-08-24T11:16:17.502Z,2.30
2018-08-24T11:18:21.987Z,1.63
2018-08-24T11:20:26.456Z,1.90
2018-08-24T11:22:31.790Z,2.30
2018-08-24T11:24:36.313Z,1.87
2018-08-24T11:26:41.462Z,1.30
2018-08-24T11:28:45.973Z,1.65
2018-08-24T11:30:50.447Z,1.45
2018-08-24T11:32:54.923Z,1.40
2018-08-24T11:34:59.398Z,1.50
2018-08-24T11:37:03.961Z,1.70
2018-08-24T11:39:09.315Z,1.47
2018-08-24T11:41:13.791Z,1.60
2018-08-24T11:43:18.246Z,1.15
2018-08-24T11:45:22.864Z,1.30
2018-08-24T11:47:27.333Z,1.42
2018-08-24T11:49:31.896Z,1.42
2018-08-24T11:51:36.659Z,1.30
2018-08-24T11:53:41.582Z,1.10
2018-08-24T11:55:46.074Z,1.22
2018-08-24T11:57:50.542Z,1.43
2018-08-24T11:59:55.503Z,1.27
2018-08-24T12:01:59.900Z,1.27
2018-08-24T12:04:05.328Z,1.40
2018-08-24T12:06:13.602Z,0.95
2018-08-24T12:08:18.188Z,1.57
2018-08-24T12:10:22.943Z,1.35
2018-08-24T12:12:27.603Z,1.30
2018-08-24T12:14:33.042Z,1.02
2018-08-24T12:16:37.651Z,1.17
2018-08-24T12:18:42.231Z,1.30
2018-08-24T12:20:46.786Z,0.90
2018-08-24T12:22:51.292Z,0.80
2018-08-24T12:24:56.046Z,0.95
2018-08-24T12:27:00.711Z,0.83
2018-08-24T12:29:05.871Z,0.70
2018-08-24T12:31:10.406Z,0.70
2018-08-24T12:33:14.923Z,0.70
2018-08-24T12:35:19.402Z,0.67
2018-08-24T12:37:23.914Z,0.80
2018-08-24T12:39:28.371Z,0.80
2018-08-24T12:41:32.882Z,0.57
2018-08-24T12:43:37.343Z,0.60
2018-08-24T12:45:42.146Z,0.80
2018-08-24T12:47:46.627Z,0.73
2018-08-24T12:49:51.107Z,0.53
2018-08-24T12:51:55.662Z,0.60
2018-08-24T12:54:00.502Z,0.77
2018-08-24T12:56:09.970Z,0.60
2018-08-24T12:58:14.525Z,0.60
2018-08-24T13:00:18.991Z,0.60
2018-08-24T13:02:23.443Z,0.57
2018-08-24T13:04:28.047Z,0.50
2018-08-24T13:06:32.658Z,0.80
2018-08-24T13:08:37.229Z,0.68
2018-08-24T13:10:42.336Z,0.70
2018-08-24T13:12:47.063Z,0.64
2018-08-24T13:14:52.233Z,0.60
2018-08-24T13:16:57.208Z,0.90
2018-08-24T13:19:03.888Z,0.60
2018-08-24T13:21:10.461Z,0.90
2018-08-24T13:23:18.101Z,0.80
2018-08-24T13:25:22.718Z,0.80
2018-08-24T13:27:28.943Z,0.83
2018-08-24T13:29:33.486Z,1.02
2018-08-24T13:31:37.958Z,0.90
2018-08-24T13:33:42.500Z,0.70
2018-08-24T13:35:46.997Z,0.74
2018-08-24T13:37:51.941Z,0.70
2018-08-24T13:39:56.531Z,0.70
2018-08-24T13:42:02.690Z,1.10
2018-08-24T13:44:07.883Z,0.90
2018-08-24T13:46:16.490Z,0.70
2018-08-24T13:48:21.166Z,0.70
2018-08-24T13:50:25.710Z,0.93
2018-08-24T13:52:30.474Z,0.60
2018-08-24T13:54:40.290Z,0.80
2018-08-24T13:56:52.256Z,0.65
2018-08-24T13:58:59.308Z,0.72
2018-08-24T14:01:07.884Z,0.70
2018-08-24T14:03:12.809Z,0.60
2018-08-24T14:05:19.919Z,0.90
2018-08-24T14:07:26.706Z,0.70
2018-08-24T14:09:34.205Z,0.78
2018-08-24T14:11:40.801Z,0.70
2018-08-24T14:13:49.374Z,1.12
2018-08-24T14:15:53.914Z,0.87
2018-08-24T14:17:58.346Z,0.85
2018-08-24T14:20:02.994Z,0.80
2018-08-24T14:22:07.539Z,0.78
2018-08-24T14:24:12.018Z,0.95
2018-08-24T14:26:16.523Z,0.70
2018-08-24T14:28:20.979Z,0.93
2018-08-24T14:30:25.405Z,0.80
2018-08-24T14:32:30.025Z,0.73
2018-08-24T14:34:34.626Z,0.70
2018-08-24T14:36:39.353Z,0.83
2018-08-24T14:38:43.950Z,0.97
2018-08-24T14:40:48.456Z,0.75
2018-08-24T14:42:53.206Z,0.73
2018-08-24T14:44:57.629Z,0.88
2018-08-24T14:47:03.319Z,0.60
2018-08-24T14:49:08.088Z,0.50
2018-08-24T14:51:12.770Z,0.80
2018-08-24T14:53:18.507Z,0.90
2018-08-24T14:55:24.962Z,0.70
2018-08-24T14:57:31.638Z,0.97
2018-08-24T14:59:38.108Z,0.50
2018-08-24T15:01:43.463Z,1.00
2018-08-24T15:03:47.952Z,0.70
2018-08-24T15:05:53.700Z,0.62
2018-08-24T15:08:02.133Z,0.70
2018-08-24T15:10:06.971Z,0.60
2018-08-24T15:12:11.779Z,0.40
2018-08-24T15:14:16.292Z,0.70
2018-08-24T15:16:20.919Z,0.80
2018-08-24T15:18:25.747Z,0.67
2018-08-24T15:20:31.102Z,0.60
2018-08-24T15:22:35.628Z,0.60
2018-08-24T15:24:40.358Z,0.62
2018-08-24T15:26:45.097Z,0.60
2018-08-24T15:28:49.635Z,0.57
2018-08-24T15:30:54.170Z,0.53
2018-08-24T15:32:59.296Z,0.80
2018-08-24T15:35:04.142Z,0.80
2018-08-24T15:37:08.658Z,0.93
2018-08-24T15:39:14.283Z,0.47
2018-08-24T15:41:18.731Z,0.70
2018-08-24T15:43:24.224Z,0.74
2018-08-24T15:45:28.794Z,0.60
2018-08-24T15:47:33.485Z,0.90
2018-08-24T15:49:38.224Z,0.55
2018-08-24T15:51:42.715Z,0.50
2018-08-24T15:53:47.226Z,0.60
2018-08-24T15:55:51.970Z,0.72
2018-08-24T15:57:56.429Z,0.60
2018-08-24T16:00:00.886Z,0.60
2018-08-24T16:02:05.353Z,0.70
2018-08-24T16:04:11.779Z,0.75
2018-08-24T16:06:16.231Z,0.50
2018-08-24T16:08:20.690Z,0.50
2018-08-24T16:10:25.395Z,0.60
2018-08-24T16:12:29.854Z,0.50
2018-08-24T16:14:34.383Z,0.50
2018-08-24T16:16:39.167Z,0.53
2018-08-24T16:18:43.647Z,0.55
2018-08-24T16:20:48.070Z,0.83
2018-08-24T16:22:53.158Z,0.85
2018-08-24T16:24:57.624Z,0.60
2018-08-24T16:27:02.221Z,0.65
2018-08-24T16:29:06.889Z,0.77
2018-08-24T16:31:11.896Z,0.70
2018-08-24T16:33:16.675Z,1.02
2018-08-24T16:35:21.141Z,0.80
2018-08-24T16:37:26.545Z,0.55
2018-08-24T16:39:31.004Z,1.10
2018-08-24T16:41:35.539Z,0.60
2018-08-24T16:43:40.038Z,0.60
2018-08-24T16:45:44.745Z,0.73
2018-08-24T16:47:50.378Z,0.80
2018-08-24T16:49:55.102Z,0.60
2018-08-24T16:52:00.174Z,0.60
2018-08-24T16:54:04.754Z,0.80
2018-08-24T16:56:09.598Z,0.80
2018-08-24T16:58:14.310Z,0.47
2018-08-24T17:00:18.746Z,0.53
2018-08-24T17:02:23.385Z,0.57
2018-08-24T17:04:27.898Z,0.60
2018-08-24T17:06:32.413Z,0.70
2018-08-24T17:08:36.907Z,1.00
2018-08-24T17:10:41.427Z,0.90
2018-08-24T17:12:46.620Z,0.50
2018-08-24T17:14:51.159Z,0.68
2018-08-24T17:16:55.631Z,0.80
2018-08-24T17:19:00.239Z,0.63
2018-08-24T17:21:04.854Z,0.70
2018-08-24T17:23:09.390Z,0.57
2018-08-24T17:25:13.947Z,0.65
2018-08-24T17:27:18.493Z,0.90
2018-08-24T17:29:23.210Z,0.60
2018-08-24T17:31:27.712Z,0.63
2018-08-24T17:33:32.361Z,0.98
2018-08-24T17:35:37.193Z,0.40
2018-08-24T17:37:41.716Z,0.80
2018-08-24T17:39:47.179Z,0.65
2018-08-24T17:41:52.811Z,0.60
2018-08-24T17:43:57.215Z,0.70
2018-08-24T17:46:01.714Z,0.65
2018-08-24T17:48:07.297Z,0.60
2018-08-24T17:50:11.742Z,0.72
2018-08-24T17:52:16.709Z,0.72
2018-08-24T17:54:21.188Z,0.57
2018-08-24T17:56:25.632Z,0.60
2018-08-24T17:58:31.086Z,0.70
2018-08-24T18:00:36.247Z,0.65
2018-08-24T18:02:40.766Z,0.67
2018-08-24T18:04:45.523Z,0.70
2018-08-24T18:06:50.386Z,0.60
2018-08-24T18:08:55.016Z,0.47
2018-08-24T18:10:59.606Z,0.57
2018-08-24T18:13:05.911Z,0.88
2018-08-24T18:15:11.576Z,0.50
2018-08-24T18:17:16.314Z,0.42
2018-08-24T18:19:20.754Z,0.70
2018-08-24T18:21:25.254Z,0.63
2018-08-24T18:23:29.799Z,0.70
2018-08-24T18:25:34.363Z,0.70
2018-08-24T18:27:38.863Z,0.60
2018-08-24T18:29:43.348Z,0.42
2018-08-24T18:31:47.866Z,0.70
2018-08-24T18:33:52.369Z,0.50
2018-08-24T18:38:32.706Z,0.50
2018-08-24T18:40:38.819Z,0.50
2018-08-24T18:42:46.953Z,0.47
2018-08-24T18:44:52.665Z,0.70
2018-08-24T18:46:57.087Z,0.45
2018-08-24T18:49:01.603Z,0.55
2018-08-24T18:51:06.336Z,0.43
2018-08-24T18:53:11.003Z,0.47
2018-08-24T18:55:15.447Z,0.60
2018-08-24T18:57:19.943Z,0.60
2018-08-24T18:59:25.001Z,3.65
2018-08-24T19:01:29.446Z,1.20
2018-08-24T19:03:34.398Z,3.30
2018-08-24T19:05:38.835Z,0.80
2018-08-24T19:07:43.999Z,0.90
2018-08-24T19:09:48.436Z,0.73
2018-08-24T19:11:57.960Z,0.88
2018-08-24T19:14:02.544Z,0.70
2018-08-24T19:16:07.018Z,0.70
2018-08-24T19:18:18.054Z,0.80
2018-08-24T19:20:27.889Z,3.95
2018-08-24T19:22:32.419Z,3.08
2018-08-24T19:24:38.713Z,1.10
2018-08-24T19:26:43.519Z,0.70
2018-08-24T19:28:53.599Z,0.53
2018-08-24T19:30:58.676Z,0.50
2018-08-24T19:33:03.680Z,0.60
2018-08-24T19:35:10.424Z,0.80
2018-08-24T19:37:14.839Z,0.90
2018-08-24T19:39:19.294Z,0.70
2018-08-24T19:41:28.908Z,0.55
2018-08-24T19:43:33.712Z,1.10
2018-08-24T19:45:38.137Z,0.70
2018-08-24T19:47:48.358Z,0.50
2018-08-24T19:49:53.492Z,0.60
2018-08-24T19:51:58.056Z,0.45
2018-08-24T19:54:03.462Z,0.60
2018-08-24T19:56:09.034Z,0.50
2018-08-24T19:58:18.660Z,0.70
2018-08-24T20:00:23.473Z,0.50
2018-08-24T20:02:29.406Z,0.77
2018-08-24T20:04:33.821Z,0.80
2018-08-24T20:06:43.368Z,0.70
2018-08-24T20:08:53.174Z,0.70
2018-08-24T20:10:57.735Z,0.53
2018-08-24T20:13:04.872Z,0.80
2018-08-24T20:15:15.231Z,0.60
2018-08-24T20:17:24.870Z,0.60
2018-08-24T20:19:29.603Z,0.60
2018-08-24T20:21:34.066Z,0.62
2018-08-24T20:23:38.507Z,0.50
2018-08-24T20:25:44.475Z,0.55
2018-08-24T20:27:49.848Z,0.50
2018-08-24T20:29:54.307Z,0.68
2018-08-24T20:31:58.719Z,0.60
2018-08-24T20:34:03.270Z,0.50
2018-08-24T20:36:08.248Z,0.40
2018-08-24T20:38:15.447Z,0.80
2018-08-24T20:40:21.029Z,0.67
2018-08-24T20:42:25.905Z,0.50
2018-08-24T20:44:30.360Z,0.80
2018-08-24T20:46:34.933Z,0.53
2018-08-24T20:48:39.410Z,0.60
2018-08-24T20:50:44.028Z,0.53
2018-08-24T20:52:49.592Z,0.60
2018-08-24T20:54:54.426Z,0.80
2018-08-24T20:56:58.838Z,0.62
2018-08-24T20:59:03.907Z,0.50
2018-08-24T21:01:10.916Z,0.60
2018-08-24T21:03:15.599Z,0.72
2018-08-24T21:05:20.164Z,0.40
2018-08-24T21:07:24.582Z,0.80
2018-08-24T21:09:30.134Z,0.67
2018-08-24T21:11:34.594Z,0.47
2018-08-24T21:13:39.019Z,0.60
2018-08-24T21:15:43.519Z,0.70
2018-08-24T21:17:48.524Z,0.45
2018-08-24T21:19:53.187Z,0.60
2018-08-24T21:21:57.730Z,0.73
2018-08-24T21:24:02.227Z,0.80
2018-08-24T21:26:06.703Z,0.65
2018-08-24T21:28:11.169Z,0.70
2018-08-24T21:30:15.707Z,0.57
2018-08-24T21:32:20.084Z,0.68
2018-08-24T21:34:24.574Z,0.60
2018-08-24T21:36:29.010Z,1.00
2018-08-24T21:38:33.835Z,0.60
2018-08-24T21:40:38.351Z,0.30
2018-08-24T21:42:43.627Z,0.40
2018-08-24T21:44:48.380Z,0.77
2018-08-24T21:46:55.593Z,0.90
2018-08-24T21:49:00.120Z,0.70
2018-08-24T21:51:04.570Z,0.60
2018-08-24T21:53:09.054Z,0.80
2018-08-24T21:55:13.498Z,0.40
2018-08-24T21:57:18.040Z,0.40
2018-08-24T21:59:22.470Z,0.57
2018-08-24T22:01:28.530Z,0.40
2018-08-24T22:03:37.211Z,0.53
2018-08-24T22:05:44.731Z,0.42
2018-08-24T22:07:49.392Z,0.60
2018-08-24T22:09:54.102Z,0.80
2018-08-24T22:11:58.529Z,0.80
2018-08-24T22:14:03.005Z,0.50
2018-08-24T22:16:07.477Z,0.70
2018-08-24T22:18:11.959Z,0.50
2018-08-24T22:20:16.571Z,0.60
2018-08-24T22:22:21.398Z,0.63
2018-08-24T22:24:25.789Z,0.90
2018-08-24T22:26:31.399Z,1.03
2018-08-24T22:28:35.978Z,0.85
2018-08-24T22:30:40.395Z,0.50
2018-08-24T22:32:47.961Z,0.90
2018-08-24T22:34:52.527Z,0.67
2018-08-24T22:36:56.931Z,0.70
2018-08-24T22:39:01.364Z,0.80
2018-08-24T22:41:06.075Z,0.90
2018-08-24T22:43:16.901Z,0.70
2018-08-24T22:45:23.873Z,0.57
2018-08-24T22:47:28.290Z,0.50
2018-08-24T22:49:32.718Z,0.67
2018-08-24T22:51:37.133Z,0.70
2018-08-24T22:53:41.626Z,0.60
2018-08-24T22:55:46.029Z,0.60
2018-08-24T22:57:50.554Z,0.60
2018-08-24T22:59:55.047Z,0.50
2018-08-24T23:01:59.474Z,0.50
2018-08-24T23:04:04.208Z,0.80
2018-08-24T23:06:08.662Z,0.70
2018-08-24T23:08:13.063Z,0.57
2018-08-24T23:10:17.462Z,0.62
2018-08-24T23:12:21.895Z,0.62
2018-08-24T23:14:26.338Z,0.88
2018-08-24T23:16:31.924Z,0.60
2018-08-24T23:18:36.410Z,0.90
2018-08-24T23:20:40.822Z,0.60
2018-08-24T23:22:45.258Z,0.70
2018-08-24T23:24:49.655Z,0.70
2018-08-24T23:26:54.090Z,0.80
2018-08-24T23:28:58.529Z,0.68
2018-08-24T23:31:02.966Z,0.57
2018-08-24T23:33:07.499Z,0.80
2018-08-24T23:35:12.525Z,0.80
2018-08-24T23:37:16.954Z,0.72
2018-08-24T23:39:21.454Z,0.70
2018-08-24T23:41:25.872Z,0.80
2018-08-24T23:43:30.280Z,0.95
2018-08-24T23:45:34.756Z,0.73
2018-08-24T23:47:39.183Z,0.83
2018-08-24T23:49:43.682Z,0.70
2018-08-24T23:51:48.192Z,0.93
2018-08-24T23:53:52.918Z,1.00
2018-08-24T23:55:57.321Z,0.62
2018-08-24T23:58:01.739Z,0.82
